KGED/GED METAR and TAF weather

Enter ICAO airport designator
Station Type Date Time Source
KGED METAR 2021/01/16 01:54 UTC NOAA

KGED 160154Z AUTO 21003KT 8SM -RA OVC060 09/07 A2973 RMK AO2 RAB14 SLP067 P0002 T00890067


Station Type Date Time Source
KGED Decoded METAR 2021/01/16 01:54 UTC NOAA

GEORGETOWN SUSSEX CO AIRPORT , DE, United States (KGED) 38-41N 075-22W 19M
Jan 15, 2021 - 08:54 PM EST / 2021.01.16 0154 UTC
Wind: from the SSW (210 degrees) at 3 MPH (3 KT):0
Visibility: 8 mile(s):0
Sky conditions: overcast
Weather: light rain
Precipitation last hour: 0.02 inches
Temperature: 48.0 F (8.9 C)
Dew Point: 44.1 F (6.7 C)
Relative Humidity: 86%
Pressure (altimeter): 29.73 in. Hg (1006 hPa)
ob: KGED 160154Z AUTO 21003KT 8SM -RA OVC060 09/07 A2973 RMK AO2 RAB14 SLP067 P0002 T00890067
cycle: 2

Station Type Date Time Source
KGED TAF UTC NOAA

Error!

Example: see airport list